• Join FlightAware (Why Join?)
  • Login
  • US Flag 
10:00PM EDT


 

Airport Tracker/Info


-or-


 

Live Flight TrackerFlight Track Log ✈ EJA898 ✈ 13-Apr-2013 ✈ KGJT - KSDL

Flight Track Log - Related Links

Times and Time Zones

All times are in EDT time to prevent confusion due to time zone crossing. See the EJA898 flight status page for this flight to view local times or setup timezone preferences in your user account.

Time Position Orientation Groundspeed Altitude Reporting Facility
EDT Latitude Longitude Course Direction KTS MPH feet Rate Location/Type
12:49PM 39.0833 -108.4833 252° West 191 220 8,000  Level Denver TRACON
12:49PM 39.0647 -108.4803 173° South 202 232 9,200 3,300 Climbing Salt Lake Center
12:50PM 39.0103 -108.4478 155° Southeast 216 249 12,400 2,580 Climbing Salt Lake Center
12:51PM 38.9564 -108.4878 210° Southwest 250 288 14,500 2,520 Climbing Salt Lake Center
12:52PM 38.9464 -108.6153 264° West 302 348 17,900 2,880 Climbing Denver Center
12:53PM 38.9383 -108.7303 265° West 321 369 20,700 2,520 Climbing Denver Center
12:54PM 38.9861 -109.1888 252° West  Level FlightAware Approximate
12:54PM 38.9300 -108.8586 265° West 336 387 23,200  Level Denver Center
12:55PM 38.9225 -108.9858 266° West 342 394 25,600 2,220 Climbing Denver Center
12:56PM 38.9147 -109.1056 265° West 350 403 27,800 2,100 Climbing Denver Center
12:57PM 38.9061 -109.2283 265° West 356 410 30,000 2,280 Climbing Denver Center
12:58PM 38.8969 -109.3686 265° West 353 406 32,600 2,040 Climbing Denver Center
12:59PM 38.8892 -109.4861 265° West 346 398 34,300 1,740 Climbing Denver Center
01:00PM 38.8794 -109.6222 265° West 343 395 36,200 1,620 Climbing Denver Center
01:01PM 38.8725 -109.7386 266° West 341 392 37,700 840 Climbing Denver Center
01:03PM 38.8606 -109.8747 264° West 344 396 38,000 120 Climbing Denver Center
01:03PM 38.8553 -109.9797 266° West 360 414 38,000  Level Salt Lake Center
01:04PM 38.8464 -110.1083 265° West 374 430 38,000  Level Salt Lake Center
01:05PM 38.8419 -110.1725 265° West 374 430 38,000  Level Denver Center
01:06PM 38.8164 -110.2969 255° West 384 442 38,000  Level Denver Center
01:07PM 38.7322 -110.4206 229° Southwest 419 482 38,000  Level Denver Center
01:07PM 38.6828 -110.4633 214° Southwest 439 505 38,000  Level Salt Lake Center
01:08PM 38.5636 -110.5547 211° Southwest 449 517 38,000  Level Salt Lake Center
01:09PM 38.5108 -110.5931 210° Southwest 449 517 38,000  Level Denver Center
01:09PM 38.4606 -110.6339 212° Southwest 452 520 38,000  Level Salt Lake Center
01:10PM 38.3428 -110.7256 211° Southwest 445 512 38,000  Level Salt Lake Center
01:11PM 38.2403 -110.8050 211° Southwest 448 516 38,000  Level Salt Lake Center
01:13PM 38.1369 -110.8825 211° Southwest 451 519 38,000  Level Salt Lake Center
01:13PM 38.0756 -110.9267 210° Southwest 450 518 38,000  Level Denver Center
01:14PM 37.9675 -111.0097 211° Southwest 454 522 38,000  Level Denver Center
01:15PM 37.8597 -111.0911 211° Southwest 452 520 38,000  Level Denver Center
01:16PM 37.7942 -111.1394 210° Southwest 453 521 38,000  Level Salt Lake Center
01:17PM 37.6872 -111.2211 211° Southwest 450 518 38,000  Level Salt Lake Center
01:17PM 37.6217 -111.2700 211° Southwest 453 521 38,000  Level Denver Center
01:18PM 37.5114 -111.3528 211° Southwest 458 527 38,000  Level Denver Center
01:19PM 37.4031 -111.4347 211° Southwest 456 525 38,000  Level Denver Center
01:20PM 37.2933 -111.5156 210° Southwest 455 524 38,000 -420 Level Denver Center
01:21PM 37.1853 -111.5950 210° Southwest 450 518 37,200 -900 Descending Denver Center
01:22PM 37.0789 -111.6756 211° Southwest 447 514 36,200 -600 Descending Denver Center
01:23PM 36.9469 -111.7722 210° Southwest 451 519 36,000 -1,020 Descending Denver Center
01:24PM 36.8297 -111.8403 205° Southwest 462 532 34,100 -1,500 Descending Denver Center
01:25PM 36.7017 -111.8822 195° South 471 542 33,000 -540 Descending Denver Center
01:27PM 36.5678 -111.9225 194° South 481 554 33,000  Level Los Angeles Center
01:28PM 36.4381 -111.9633 194° South 480 552 33,000 -1,080 Level Los Angeles Center
01:29PM 36.2869 -112.0086 194° South 466 536 30,800 -1,920 Descending Los Angeles Center
01:30PM 36.1769 -112.0417 194° South 447 514 29,100 -900 Descending Los Angeles Center
01:31PM 36.0533 -112.0800 194° South 460 529 29,000 -60 Descending Los Angeles Center
01:32PM 35.9231 -112.1197 194° South 481 554 29,000  Level Los Angeles Center
01:33PM 35.7633 -112.1664 193° South 490 564 29,000  Level Los Angeles Center
01:34PM 35.6031 -112.2144 194° South 494 568 29,000  Level Los Angeles Center
01:35PM 35.5236 -112.2383 194° South 490 564 29,000  Level Albuquerque Center
01:36PM 35.3639 -112.2853 193° South 490 564 29,000  Level Albuquerque Center
01:37PM 35.2328 -112.3247 194° South 486 559 29,000 -1,500 Level Albuquerque Center
01:38PM 35.1033 -112.3633 194° South 480 552 26,000 -2,880 Descending Albuquerque Center
01:39PM 34.9783 -112.3739 184° South 462 532 23,100 -1,500 Descending Albuquerque Center
01:40PM 34.8719 -112.2869 146° Southeast 477 549 23,000 -60 Descending Albuquerque Center
01:41PM 34.7839 -112.1686 132° Southeast 476 548 23,000  Level Albuquerque Center
01:42PM 34.6822 -112.0336 132° Southeast 468 539 23,000 -660 Level Albuquerque Center
01:43PM 34.5914 -111.9225 135° Southeast 465 535 21,700 -2,280 Descending Albuquerque Center
01:44PM 34.4725 -111.9053 173° South 437 503 18,400 -3,300 Descending Albuquerque Center
01:45PM 34.3583 -111.9125 183° South 418 481 14,900 -3,300 Descending Albuquerque Center
01:46PM 34.2611 -111.9175 182° South 367 422 11,600 -1,920 Descending Albuquerque Center
01:47PM 34.1661 -111.9236 183° South 288 331 10,900 -960 Descending Albuquerque Center
01:48PM 34.0872 -111.9286 183° South 284 327 9,600 -1,260 Descending Albuquerque Center
01:49PM 34.0094 -111.9314 182° South 283 326 8,400 -1,080 Descending Albuquerque Center
01:50PM 33.9353 -111.9375 184° South 273 314 7,500 -720 Descending Albuquerque Center
01:51PM 33.8636 -111.9317 176° South 265 305 7,000 -960 Descending Albuquerque Center
01:52PM 33.7844 -111.9114 168° South 243 280 5,600 -1,260 Descending Albuquerque Center
01:53PM 33.7267 -111.8933 165° South 219 252 4,500 -1,140 Descending Albuquerque Center
01:54PM 33.6842 -111.8697 155° Southeast 180 207 3,300 -1,020 Descending Albuquerque Center
01:55PM 33.6519 -111.8789 193° South 156 180 2,400 -780 Descending Albuquerque Center
01:56PM 33.6214 -111.9139 224° Southwest 146 168 1,800 -600 Descending Albuquerque Center
01:58PM 33.6229 -111.9105 189° South  Level Estimated